^^

..:: Storico WU ::..




Lo storico viene creato da WUnderground con i dati che la stazione Meteomincio invia al loro server. L' aggiornamento viene fatto ogni 5 minuti circa, tuttavia possono esserci intervalli pił ampi a causa di errori, interruzioni di servizio o problemi nell' invio tramite FTP.


Storico stazione MeteoMincio
Giorno Sommario per Dicembre 16, 2022 Unità:  Entrambi    Inglese   Metrico
Giorno Settimana Mese Anno
  Max: Min: Media:
Temperatura: 41 °F /  5.0 °C 37.4 °F /  3.0 °C 39.6 °F /  4.2 °C
Dew Point: 41 °F /  5.0 °C 37.4 °F /  3.0 °C 39.2 °F /  4 °C
Umidità: 100% 96% 96%
Velocità vento: 11.8mph /  19km/h - 6.2mph /  10km/h
Raffica: 16.2mph /  26km/h - -
Direzione- - West
Pressione: 29.8 in /  1009.7 hPa 29.6 in /  1002.5 hPa -
Precipitazioni: 0.03 in /  0.79 mm    
 
 
Tabulato Dati per Dicembre 16, 2022
Ora Temperatura Dew Point Pressione Direzione Velocità vento Raffica Umidità Intensità pioggia (oraria) Info solare Situazione
00:04 39.2 °F /  4.0 °C 39.2 °F /  4.0 °C 29.6in /  1003.1hPa WNW 9.9mph /  16km/h 14.3mph /  23km/h 96% 0in /  0.00mm 0.00 W/m2 unknown
00:09 39.2 °F /  4.0 °C 39.2 °F /  4.0 °C 29.6in /  1003.1hPa West 11.2mph /  18km/h 16.2mph /  26km/h 96% 0in /  0.00mm 0.00 W/m2 unknown
00:14 39.2 °F /  4.0 °C 39.2 °F /  4.0 °C 29.6in /  1003.2hPa WNW 10.6mph /  17km/h 16.2mph /  26km/h 96% 0in /  0.00mm 0.00 W/m2 unknown
00:19 39.2 °F /  4.0 °C 39.2 °F /  4.0 °C 29.6in /  1003.2hPa WNW 10.6mph /  17km/h 16.2mph /  26km/h 96% 0in /  0.00mm 0.00 W/m2 unknown
00:24 39.2 °F /  4.0 °C 39.2 °F /  4.0 °C 29.6in /  1003.1hPa West 10.6mph /  17km/h 14.3mph /  23km/h 96% 0in /  0.00mm 0.00 W/m2 unknown
00:29 39.2 °F /  4.0 °C 39.2 °F /  4.0 °C 29.6in /  1003.1hPa WNW 9.9mph /  16km/h 14.3mph /  23km/h 96% 0in /  0.00mm 0.00 W/m2 unknown
00:34 39.2 °F /  4.0 °C 39.2 °F /  4.0 °C 29.6in /  1003.0hPa WNW 11.8mph /  19km/h 14.3mph /  23km/h 96% 0in /  0.00mm 0.00 W/m2 unknown
00:39 39.2 °F /  4.0 °C 37.4 °F /  3.0 °C 29.6in /  1002.8hPa West 11.8mph /  19km/h 14.3mph /  23km/h 96% 0in /  0.00mm 0.00 W/m2 unknown
00:44 39.2 °F /  4.0 °C 37.4 °F /  3.0 °C 29.6in /  1002.8hPa WNW 10.6mph /  17km/h 14.3mph /  23km/h 96% 0in /  0.00mm 0.00 W/m2 unknown
00:49 39.2 °F /  4.0 °C 37.4 °F /  3.0 °C 29.6in /  1002.7hPa WNW 10.6mph /  17km/h 14.3mph /  23km/h 96% 0.01in /  0.20mm 0.00 W/m2 unknown
00:54 39.2 °F /  4.0 °C 37.4 °F /  3.0 °C 29.6in /  1002.6hPa WNW 11.2mph /  18km/h 14.9mph /  24km/h 96% 0.01in /  0.20mm 0.00 W/m2 unknown
00:59 39.2 °F /  4.0 °C 37.4 °F /  3.0 °C 29.6in /  1002.7hPa West 11.2mph /  18km/h 14.9mph /  24km/h 96% 0.01in /  0.20mm 0.00 W/m2 unknown
01:04 39.2 °F /  4.0 °C 37.4 °F /  3.0 °C 29.6in /  1002.7hPa WNW 10.6mph /  17km/h 14.9mph /  24km/h 96% 0.01in /  0.20mm 0.00 W/m2 unknown
01:09 39.2 °F /  4.0 °C 37.4 °F /  3.0 °C 29.6in /  1002.6hPa WNW 9.9mph /  16km/h 14.9mph /  24km/h 96% 0.01in /  0.20mm 0.00 W/m2 unknown
01:14 39.2 °F /  4.0 °C 37.4 °F /  3.0 °C 29.6in /  1002.7hPa WNW 9.9mph /  16km/h 14.3mph /  23km/h 96% 0.01in /  0.20mm 0.00 W/m2 unknown
01:19 39.2 °F /  4.0 °C 37.4 °F /  3.0 °C 29.6in /  1002.7hPa West 9.9mph /  16km/h 13mph /  21km/h 96% 0.01in /  0.20mm 0.00 W/m2 unknown
01:24 39.2 °F /  4.0 °C 37.4 °F /  3.0 °C 29.6in /  1002.7hPa WNW 9.3mph /  15km/h 14.3mph /  23km/h 96% 0.01in /  0.20mm 0.00 W/m2 unknown
01:29 39.2 °F /  4.0 °C 37.4 °F /  3.0 °C 29.6in /  1002.7hPa West 7.5mph /  12km/h 14.3mph /  23km/h 96% 0.01in /  0.20mm 0.00 W/m2 unknown
01:34 39.2 °F /  4.0 °C 37.4 °F /  3.0 °C 29.6in /  1002.7hPa WNW 8.7mph /  14km/h 11.8mph /  19km/h 96% 0.01in /  0.20mm 0.00 W/m2 unknown
01:39 39.2 °F /  4.0 °C 37.4 °F /  3.0 °C 29.6in /  1002.6hPa West 9.3mph /  15km/h 13mph /  21km/h 96% 0.01in /  0.20mm 0.00 W/m2 unknown
01:44 39.2 °F /  4.0 °C 37.4 °F /  3.0 °C 29.6in /  1002.7hPa WNW 10.6mph /  17km/h 13mph /  21km/h 96% 0.01in /  0.20mm 0.00 W/m2 unknown
01:49 39.2 °F /  4.0 °C 37.4 °F /  3.0 °C 29.6in /  1002.7hPa WNW 8.7mph /  14km/h 13mph /  21km/h 96% 0.01in /  0.20mm 0.00 W/m2 unknown
01:54 39.2 °F /  4.0 °C 37.4 °F /  3.0 °C 29.6in /  1002.7hPa WNW 8.1mph /  13km/h 13mph /  21km/h 96% 0in /  0.00mm 0.00 W/m2 unknown
01:59 39.2 °F /  4.0 °C 37.4 °F /  3.0 °C 29.6in /  1002.7hPa WNW 9.3mph /  15km/h 11.8mph /  19km/h 96% 0in /  0.00mm 0.00 W/m2 unknown
02:04 39.2 °F /  4.0 °C 37.4 °F /  3.0 °C 29.6in /  1002.9hPa WNW 8.1mph /  13km/h 11.8mph /  19km/h 96% 0in /  0.00mm 0.00 W/m2 unknown
02:09 39.2 °F /  4.0 °C 37.4 °F /  3.0 °C 29.6in /  1002.9hPa West 6.8mph /  11km/h 10.6mph /  17km/h 96% 0in /  0.00mm 0.00 W/m2 unknown
02:14 39.2 °F /  4.0 °C 37.4 °F /  3.0 °C 29.6in /  1003.0hPa West 7.5mph /  12km/h 11.2mph /  18km/h 96% 0in /  0.00mm 0.00 W/m2 unknown
02:19 39.2 °F /  4.0 °C 37.4 °F /  3.0 °C 29.6in /  1003.0hPa West 7.5mph /  12km/h 11.8mph /  19km/h 96% 0in /  0.00mm 0.00 W/m2 unknown
02:24 39.2 °F /  4.0 °C 39.2 °F /  4.0 °C 29.6in /  1003.0hPa West 8.1mph /  13km/h 11.8mph /  19km/h 96% 0in /  0.00mm 0.00 W/m2 unknown
02:29 39.2 °F /  4.0 °C 39.2 °F /  4.0 °C 29.6in /  1002.8hPa WNW 7.5mph /  12km/h 11.8mph /  19km/h 96% 0in /  0.00mm 0.00 W/m2 unknown
02:34 39.2 °F /  4.0 °C 39.2 °F /  4.0 °C 29.6in /  1002.9hPa West 8.7mph /  14km/h 11.8mph /  19km/h 96% 0in /  0.00mm 0.00 W/m2 unknown
02:39 39.2 °F /  4.0 °C 39.2 °F /  4.0 °C 29.6in /  1003.0hPa West 8.7mph /  14km/h 11.8mph /  19km/h 96% 0in /  0.00mm 0.00 W/m2 unknown
02:44 39.2 °F /  4.0 °C 37.4 °F /  3.0 °C 29.6in /  1003.0hPa WNW 8.1mph /  13km/h 11.8mph /  19km/h 96% 0in /  0.00mm 0.00 W/m2 unknown
02:49 39.2 °F /  4.0 °C 37.4 °F /  3.0 °C 29.6in /  1002.6hPa WNW 9.3mph /  15km/h 11.8mph /  19km/h 96% 0in /  0.00mm 0.00 W/m2 unknown
02:54 39.2 °F /  4.0 °C 37.4 °F /  3.0 °C 29.6in /  1002.6hPa West 8.1mph /  13km/h 11.8mph /  19km/h 96% 0in /  0.00mm 0.00 W/m2 unknown
02:59 39.2 °F /  4.0 °C 37.4 °F /  3.0 °C 29.6in /  1002.5hPa West 7.5mph /  12km/h 10.6mph /  17km/h 96% 0in /  0.00mm 0.00 W/m2 unknown
03:04 39.2 °F /  4.0 °C 37.4 °F /  3.0 °C 29.6in /  1002.6hPa West 8.1mph /  13km/h 10.6mph /  17km/h 96% 0in /  0.00mm 0.00 W/m2 unknown
03:09 39.2 °F /  4.0 °C 37.4 °F /  3.0 °C 29.6in /  1002.7hPa West 8.7mph /  14km/h 11.8mph /  19km/h 96% 0in /  0.00mm 0.00 W/m2 unknown
03:14 39.2 °F /  4.0 °C 37.4 °F /  3.0 °C 29.6in /  1002.6hPa West 8.1mph /  13km/h 11.8mph /  19km/h 96% 0in /  0.00mm 0.00 W/m2 unknown
03:19 39.2 °F /  4.0 °C 37.4 °F /  3.0 °C 29.6in /  1002.8hPa WSW 8.1mph /  13km/h 11.8mph /  19km/h 96% 0in /  0.00mm 0.00 W/m2 unknown
03:24 39.2 °F /  4.0 °C 37.4 °F /  3.0 °C 29.6in /  1002.9hPa WSW 9.9mph /  16km/h 13mph /  21km/h 96% 0in /  0.00mm 0.00 W/m2 unknown
03:29 39.2 °F /  4.0 °C 37.4 °F /  3.0 °C 29.6in /  1002.9hPa West 8.1mph /  13km/h 13mph /  21km/h 96% 0in /  0.00mm 0.00 W/m2 unknown
03:34 39.2 °F /  4.0 °C 37.4 °F /  3.0 °C 29.6in /  1002.9hPa West 8.1mph /  13km/h 11.8mph /  19km/h 96% 0in /  0.00mm 0.00 W/m2 unknown
03:39 39.2 °F /  4.0 °C 37.4 °F /  3.0 °C 29.6in /  1003.0hPa West 8.1mph /  13km/h 11.8mph /  19km/h 96% 0in /  0.00mm 0.00 W/m2 unknown
03:44 39.2 °F /  4.0 °C 37.4 °F /  3.0 °C 29.6in /  1003.0hPa West 9.9mph /  16km/h 13mph /  21km/h 96% 0in /  0.00mm 0.00 W/m2 unknown
03:49 37.4 °F /  3.0 °C 37.4 °F /  3.0 °C 29.6in /  1002.8hPa West 8.7mph /  14km/h 13mph /  21km/h 96% 0in /  0.00mm 0.00 W/m2 unknown
03:54 37.4 °F /  3.0 °C 37.4 °F /  3.0 °C 29.6in /  1003.0hPa West 8.1mph /  13km/h 11.8mph /  19km/h 96% 0in /  0.00mm 0.00 W/m2 unknown
03:59 37.4 °F /  3.0 °C 37.4 °F /  3.0 °C 29.6in /  1003.0hPa West 8.1mph /  13km/h 11.8mph /  19km/h 96% 0in /  0.00mm 0.00 W/m2 unknown
04:04 37.4 °F /  3.0 °C 37.4 °F /  3.0 °C 29.6in /  1003.1hPa WSW 8.1mph /  13km/h 11.8mph /  19km/h 96% 0in /  0.00mm 0.00 W/m2 unknown
04:09 37.4 °F /  3.0 °C 37.4 °F /  3.0 °C 29.6in /  1003.1hPa WSW 9.3mph /  15km/h 11.8mph /  19km/h 96% 0in /  0.00mm 0.00 W/m2 unknown
04:14 37.4 °F /  3.0 °C 37.4 °F /  3.0 °C 29.6in /  1003.0hPa West 8.7mph /  14km/h 11.8mph /  19km/h 96% 0in /  0.00mm 0.00 W/m2 unknown
04:19 37.4 °F /  3.0 °C 37.4 °F /  3.0 °C 29.6in /  1002.9hPa West 8.7mph /  14km/h 11.8mph /  19km/h 96% 0in /  0.00mm 0.00 W/m2 unknown
04:24 37.4 °F /  3.0 °C 37.4 °F /  3.0 °C 29.6in /  1002.9hPa West 6.8mph /  11km/h 11.8mph /  19km/h 96% 0in /  0.00mm 0.00 W/m2 unknown
04:29 37.4 °F /  3.0 °C 37.4 °F /  3.0 °C 29.6in /  1003.0hPa West 7.5mph /  12km/h 10.6mph /  17km/h 96% 0in /  0.00mm 0.00 W/m2 unknown
04:34 37.4 °F /  3.0 °C 37.4 °F /  3.0 °C 29.6in /  1002.9hPa West 7.5mph /  12km/h 10.6mph /  17km/h 96% 0in /  0.00mm 0.00 W/m2 unknown
04:39 37.4 °F /  3.0 °C 37.4 °F /  3.0 °C 29.6in /  1002.9hPa West 6.2mph /  10km/h 9.9mph /  16km/h 96% 0in /  0.00mm 0.00 W/m2 unknown
04:44 37.4 °F /  3.0 °C 37.4 °F /  3.0 °C 29.6in /  1002.9hPa West 6.8mph /  11km/h 11.2mph /  18km/h 96% 0in /  0.00mm 0.00 W/m2 unknown
04:49 37.4 °F /  3.0 °C 37.4 °F /  3.0 °C 29.6in /  1003.0hPa West 8.1mph /  13km/h 11.8mph /  19km/h 96% 0in /  0.00mm 0.00 W/m2 unknown
04:54 37.4 °F /  3.0 °C 37.4 °F /  3.0 °C 29.6in /  1003.1hPa West 6.8mph /  11km/h 11.8mph /  19km/h 96% 0in /  0.00mm 0.00 W/m2 unknown
04:59 37.4 °F /  3.0 °C 37.4 °F /  3.0 °C 29.6in /  1003.2hPa West 6.8mph /  11km/h 11.2mph /  18km/h 96% 0in /  0.00mm 0.00 W/m2 unknown
05:04 37.4 °F /  3.0 °C 37.4 °F /  3.0 °C 29.6in /  1003.2hPa West 8.1mph /  13km/h 11.8mph /  19km/h 96% 0in /  0.00mm 0.00 W/m2 unknown
05:09 37.4 °F /  3.0 °C 37.4 °F /  3.0 °C 29.6in /  1003.1hPa West 6.2mph /  10km/h 11.8mph /  19km/h 96% 0in /  0.00mm 0.00 W/m2 unknown
05:14 37.4 °F /  3.0 °C 37.4 °F /  3.0 °C 29.6in /  1003.0hPa West 6.8mph /  11km/h 10.6mph /  17km/h 96% 0in /  0.00mm 0.00 W/m2 unknown
05:19 37.4 °F /  3.0 °C 37.4 °F /  3.0 °C 29.6in /  1003.0hPa West 7.5mph /  12km/h 9.9mph /  16km/h 96% 0in /  0.00mm 0.00 W/m2 unknown
05:24 37.4 °F /  3.0 °C 37.4 °F /  3.0 °C 29.6in /  1003.2hPa West 8.1mph /  13km/h 11.2mph /  18km/h 96% 0in /  0.00mm 0.00 W/m2 unknown
05:29 37.4 °F /  3.0 °C 37.4 °F /  3.0 °C 29.6in /  1003.2hPa West 8.1mph /  13km/h 11.8mph /  19km/h 96% 0in /  0.00mm 0.00 W/m2 unknown
05:34 37.4 °F /  3.0 °C 37.4 °F /  3.0 °C 29.6in /  1003.3hPa West 6.8mph /  11km/h 11.8mph /  19km/h 96% 0in /  0.00mm 0.00 W/m2 unknown
05:39 37.4 °F /  3.0 °C 37.4 °F /  3.0 °C 29.6in /  1003.2hPa West 7.5mph /  12km/h 11.8mph /  19km/h 96% 0in /  0.00mm 0.00 W/m2 unknown
05:44 37.4 °F /  3.0 °C 37.4 °F /  3.0 °C 29.6in /  1003.1hPa West 7.5mph /  12km/h 11.8mph /  19km/h 96% 0in /  0.00mm 0.00 W/m2 unknown
05:49 37.4 °F /  3.0 °C 37.4 °F /  3.0 °C 29.6in /  1003.1hPa West 6.8mph /  11km/h 11.8mph /  19km/h 96% 0in /  0.00mm 0.00 W/m2 unknown
05:54 37.4 °F /  3.0 °C 37.4 °F /  3.0 °C 29.6in /  1003.2hPa West 6.2mph /  10km/h 8.7mph /  14km/h 96% 0in /  0.00mm 0.00 W/m2 unknown
05:59 37.4 °F /  3.0 °C 37.4 °F /  3.0 °C 29.6in /  1003.2hPa West 6.8mph /  11km/h 10.6mph /  17km/h 96% 0in /  0.00mm 0.00 W/m2 unknown
06:04 37.4 °F /  3.0 °C 37.4 °F /  3.0 °C 29.6in /  1003.2hPa West 6.2mph /  10km/h 9.9mph /  16km/h 96% 0in /  0.00mm 0.00 W/m2 unknown
06:09 37.4 °F /  3.0 °C 37.4 °F /  3.0 °C 29.6in /  1003.2hPa West 5mph /  8km/h 8.7mph /  14km/h 96% 0in /  0.00mm 0.00 W/m2 unknown
06:14 37.4 °F /  3.0 °C 37.4 °F /  3.0 °C 29.6in /  1003.4hPa WSW 6.2mph /  10km/h 9.3mph /  15km/h 96% 0in /  0.00mm 0.00 W/m2 unknown
06:19 37.4 °F /  3.0 °C 37.4 °F /  3.0 °C 29.6in /  1003.3hPa West 8.1mph /  13km/h 11.8mph /  19km/h 96% 0in /  0.00mm 0.00 W/m2 unknown
06:24 37.4 °F /  3.0 °C 37.4 °F /  3.0 °C 29.6in /  1003.3hPa West 6.8mph /  11km/h 11.8mph /  19km/h 96% 0in /  0.00mm 0.00 W/m2 unknown
06:29 37.4 °F /  3.0 °C 37.4 °F /  3.0 °C 29.6in /  1003.4hPa West 6.2mph /  10km/h 8.1mph /  13km/h 96% 0in /  0.00mm 0.00 W/m2 unknown
06:34 37.4 °F /  3.0 °C 37.4 °F /  3.0 °C 29.6in /  1003.4hPa West 6.8mph /  11km/h 9.3mph /  15km/h 96% 0in /  0.00mm 0.00 W/m2 unknown
06:39 37.4 °F /  3.0 °C 37.4 °F /  3.0 °C 29.6in /  1003.3hPa WNW 8.1mph /  13km/h 10.6mph /  17km/h 96% 0in /  0.00mm 0.00 W/m2 unknown
06:44 37.4 °F /  3.0 °C 37.4 °F /  3.0 °C 29.6in /  1003.2hPa WNW 8.1mph /  13km/h 10.6mph /  17km/h 96% 0in /  0.00mm 0.00 W/m2 unknown
06:49 37.4 °F /  3.0 °C 37.4 °F /  3.0 °C 29.6in /  1003.3hPa West 7.5mph /  12km/h 10.6mph /  17km/h 96% 0in /  0.00mm 0.00 W/m2 unknown
06:54 37.4 °F /  3.0 °C 37.4 °F /  3.0 °C 29.6in /  1003.5hPa West 8.7mph /  14km/h 10.6mph /  17km/h 96% 0in /  0.00mm 0.00 W/m2 unknown
06:59 37.4 °F /  3.0 °C 37.4 °F /  3.0 °C 29.6in /  1003.5hPa West 8.7mph /  14km/h 11.8mph /  19km/h 96% 0in /  0.00mm 0.00 W/m2 unknown
07:04 37.4 °F /  3.0 °C 37.4 °F /  3.0 °C 29.6in /  1003.4hPa West 7.5mph /  12km/h 11.8mph /  19km/h 96% 0in /  0.00mm 0.00 W/m2 unknown
07:09 37.4 °F /  3.0 °C 37.4 °F /  3.0 °C 29.6in /  1003.5hPa West 8.1mph /  13km/h 11.2mph /  18km/h 96% 0in /  0.00mm 0.00 W/m2 unknown
07:14 37.4 °F /  3.0 °C 37.4 °F /  3.0 °C 29.6in /  1003.5hPa West 7.5mph /  12km/h 11.8mph /  19km/h 96% 0in /  0.00mm 0.00 W/m2 unknown
07:19 37.4 °F /  3.0 °C 37.4 °F /  3.0 °C 29.6in /  1003.4hPa West 7.5mph /  12km/h 9.3mph /  15km/h 96% 0in /  0.00mm 0.00 W/m2 unknown
07:24 37.4 °F /  3.0 °C 37.4 °F /  3.0 °C 29.6in /  1003.4hPa West 6.2mph /  10km/h 8.7mph /  14km/h 96% 0in /  0.00mm 0.00 W/m2 unknown
07:29 37.4 °F /  3.0 °C 37.4 °F /  3.0 °C 29.6in /  1003.3hPa WNW 6.2mph /  10km/h 8.1mph /  13km/h 96% 0in /  0.00mm 0.00 W/m2 unknown
07:34 37.4 °F /  3.0 °C 37.4 °F /  3.0 °C 29.6in /  1003.3hPa West 7.5mph /  12km/h 9.9mph /  16km/h 96% 0in /  0.00mm 0.00 W/m2 unknown
07:39 37.4 °F /  3.0 °C 37.4 °F /  3.0 °C 29.6in /  1003.3hPa West 8.1mph /  13km/h 10.6mph /  17km/h 96% 0in /  0.00mm 0.00 W/m2 unknown
07:44 37.4 °F /  3.0 °C 37.4 °F /  3.0 °C 29.6in /  1003.4hPa WNW 7.5mph /  12km/h 11.8mph /  19km/h 96% 0in /  0.00mm 0.00 W/m2 unknown
07:49 37.4 °F /  3.0 °C 37.4 °F /  3.0 °C 29.6in /  1003.5hPa West 7.5mph /  12km/h 11.8mph /  19km/h 96% 0in /  0.00mm 0.00 W/m2 unknown
07:54 37.4 °F /  3.0 °C 37.4 °F /  3.0 °C 29.6in /  1003.5hPa West 6.8mph /  11km/h 11.8mph /  19km/h 96% 0in /  0.00mm 0.00 W/m2 unknown
07:59 37.4 °F /  3.0 °C 37.4 °F /  3.0 °C 29.6in /  1003.6hPa West 8.1mph /  13km/h 11.8mph /  19km/h 96% 0in /  0.00mm 0.00 W/m2 unknown
08:04 37.4 °F /  3.0 °C 37.4 °F /  3.0 °C 29.6in /  1003.6hPa WNW 8.1mph /  13km/h 11.8mph /  19km/h 96% 0in /  0.00mm 0.00 W/m2 unknown
08:09 37.4 °F /  3.0 °C 37.4 °F /  3.0 °C 29.6in /  1003.6hPa West 8.1mph /  13km/h 11.8mph /  19km/h 96% 0in /  0.00mm 0.00 W/m2 unknown
08:14 37.4 °F /  3.0 °C 37.4 °F /  3.0 °C 29.6in /  1003.6hPa West 8.7mph /  14km/h 11.8mph /  19km/h 96% 0in /  0.00mm 0.00 W/m2 unknown
08:19 37.4 °F /  3.0 °C 37.4 °F /  3.0 °C 29.6in /  1003.8hPa WNW 9.3mph /  15km/h 13mph /  21km/h 96% 0in /  0.00mm 7.00 W/m2 unknown
08:24 37.4 °F /  3.0 °C 37.4 °F /  3.0 °C 29.6in /  1003.8hPa West 8.1mph /  13km/h 13mph /  21km/h 96% 0.01in /  0.20mm 11.00 W/m2 unknown
08:29 37.4 °F /  3.0 °C 37.4 °F /  3.0 °C 29.6in /  1003.9hPa WNW 6.2mph /  10km/h 10.6mph /  17km/h 96% 0.01in /  0.20mm 16.00 W/m2 unknown
08:34 37.4 °F /  3.0 °C 37.4 °F /  3.0 °C 29.7in /  1004.1hPa WNW 7.5mph /  12km/h 11.8mph /  19km/h 96% 0.01in /  0.20mm 16.00 W/m2 unknown
08:39 37.4 °F /  3.0 °C 37.4 °F /  3.0 °C 29.7in /  1004.1hPa West 7.5mph /  12km/h 11.8mph /  19km/h 96% 0.01in /  0.20mm 7.00 W/m2 unknown
08:44 37.4 °F /  3.0 °C 37.4 °F /  3.0 °C 29.7in /  1004.2hPa West 6.8mph /  11km/h 10.6mph /  17km/h 96% 0.02in /  0.41mm 7.00 W/m2 unknown
08:49 37.4 °F /  3.0 °C 37.4 °F /  3.0 °C 29.7in /  1004.4hPa WSW 6.2mph /  10km/h 9.9mph /  16km/h 96% 0.02in /  0.41mm 7.00 W/m2 unknown
08:54 37.4 °F /  3.0 °C 37.4 °F /  3.0 °C 29.7in /  1004.3hPa West 6.2mph /  10km/h 8.1mph /  13km/h 96% 0.02in /  0.41mm 7.00 W/m2 unknown
08:59 37.4 °F /  3.0 °C 37.4 °F /  3.0 °C 29.7in /  1004.4hPa West 6.2mph /  10km/h 8.1mph /  13km/h 96% 0.02in /  0.41mm 5.00 W/m2 unknown
09:04 37.4 °F /  3.0 °C 37.4 °F /  3.0 °C 29.7in /  1004.5hPa West 6.8mph /  11km/h 8.1mph /  13km/h 96% 0.02in /  0.41mm 7.00 W/m2 unknown
09:09 37.4 °F /  3.0 °C 37.4 °F /  3.0 °C 29.7in /  1004.6hPa West 6.2mph /  10km/h 8.1mph /  13km/h 96% 0.02in /  0.41mm 7.00 W/m2 unknown
09:14 37.4 °F /  3.0 °C 37.4 °F /  3.0 °C 29.7in /  1004.6hPa WSW 6.2mph /  10km/h 8.1mph /  13km/h 96% 0.02in /  0.41mm 11.00 W/m2 unknown
09:19 37.4 °F /  3.0 °C 37.4 °F /  3.0 °C 29.7in /  1004.6hPa West 6.2mph /  10km/h 10.6mph /  17km/h 96% 0.02in /  0.41mm 12.00 W/m2 unknown
09:24 37.4 °F /  3.0 °C 37.4 °F /  3.0 °C 29.7in /  1004.8hPa West 6.8mph /  11km/h 9.9mph /  16km/h 96% 0.02in /  0.41mm 14.00 W/m2 unknown
09:29 37.4 °F /  3.0 °C 37.4 °F /  3.0 °C 29.7in /  1004.7hPa West 6.8mph /  11km/h 9.3mph /  15km/h 96% 0.02in /  0.41mm 16.00 W/m2 unknown
09:34 37.4 °F /  3.0 °C 37.4 °F /  3.0 °C 29.7in /  1004.7hPa WNW 6.2mph /  10km/h 9.3mph /  15km/h 96% 0.01in /  0.20mm 18.00 W/m2 unknown
09:39 37.4 °F /  3.0 °C 37.4 °F /  3.0 °C 29.7in /  1004.7hPa WNW 5mph /  8km/h 8.7mph /  14km/h 96% 0.02in /  0.41mm 21.00 W/m2 unknown
09:44 37.4 °F /  3.0 °C 37.4 °F /  3.0 °C 29.7in /  1004.7hPa West 5mph /  8km/h 9.3mph /  15km/h 96% 0.02in /  0.41mm 21.00 W/m2 unknown
09:49 37.4 °F /  3.0 °C 37.4 °F /  3.0 °C 29.7in /  1004.7hPa West 5.6mph /  9km/h 8.7mph /  14km/h 96% 0.02in /  0.41mm 21.00 W/m2 unknown
09:54 37.4 °F /  3.0 °C 37.4 °F /  3.0 °C 29.7in /  1004.7hPa WNW 6.2mph /  10km/h 8.1mph /  13km/h 96% 0.01in /  0.20mm 23.00 W/m2 unknown
09:59 37.4 °F /  3.0 °C 37.4 °F /  3.0 °C 29.7in /  1004.8hPa WNW 6.2mph /  10km/h 8.1mph /  13km/h 96% 0.01in /  0.20mm 25.00 W/m2 unknown
10:04 39.2 °F /  4.0 °C 37.4 °F /  3.0 °C 29.7in /  1004.9hPa WNW 6.2mph /  10km/h 8.1mph /  13km/h 96% 0.01in /  0.20mm 28.00 W/m2 unknown
10:09 39.2 °F /  4.0 °C 37.4 °F /  3.0 °C 29.7in /  1004.9hPa WNW 6.8mph /  11km/h 8.1mph /  13km/h 96% 0.01in /  0.20mm 23.00 W/m2 unknown
10:14 39.2 °F /  4.0 °C 37.4 °F /  3.0 °C 29.7in /  1005.0hPa WNW 6.2mph /  10km/h 8.1mph /  13km/h 96% 0.01in /  0.20mm 33.00 W/m2 unknown
10:19 39.2 °F /  4.0 °C 37.4 °F /  3.0 °C 29.7in /  1005.0hPa WNW 6.2mph /  10km/h 8.1mph /  13km/h 96% 0.01in /  0.20mm 70.00 W/m2 unknown
10:24 39.2 °F /  4.0 °C 37.4 °F /  3.0 °C 29.7in /  1005.1hPa WNW 6.2mph /  10km/h 8.1mph /  13km/h 96% 0.01in /  0.20mm 102.00 W/m2 unknown
10:29 39.2 °F /  4.0 °C 37.4 °F /  3.0 °C 29.7in /  1005.1hPa WNW 6.2mph /  10km/h 8.1mph /  13km/h 96% 0.01in /  0.20mm 97.00 W/m2 unknown
10:34 39.2 °F /  4.0 °C 37.4 °F /  3.0 °C 29.7in /  1005.1hPa WNW 6.8mph /  11km/h 8.1mph /  13km/h 96% 0.01in /  0.20mm 95.00 W/m2 unknown
10:39 39.2 °F /  4.0 °C 37.4 °F /  3.0 °C 29.7in /  1005.2hPa West 5.6mph /  9km/h 8.1mph /  13km/h 96% 0.01in /  0.20mm 58.00 W/m2 unknown
10:44 39.2 °F /  4.0 °C 37.4 °F /  3.0 °C 29.7in /  1005.2hPa West 6.2mph /  10km/h 8.1mph /  13km/h 96% 0.01in /  0.20mm 62.00 W/m2 unknown
10:49 39.2 °F /  4.0 °C 39.2 °F /  4.0 °C 29.7in /  1005.2hPa West 6.2mph /  10km/h 8.1mph /  13km/h 96% 0in /  0.00mm 63.00 W/m2 unknown
10:54 39.2 °F /  4.0 °C 39.2 °F /  4.0 °C 29.7in /  1005.2hPa West 5.6mph /  9km/h 6.8mph /  11km/h 96% 0in /  0.00mm 84.00 W/m2 unknown
10:59 39.2 °F /  4.0 °C 39.2 °F /  4.0 °C 29.7in /  1005.2hPa WNW 8.7mph /  14km/h 11.2mph /  18km/h 96% 0in /  0.00mm 93.00 W/m2 unknown
11:04 39.2 °F /  4.0 °C 39.2 °F /  4.0 °C 29.7in /  1005.0hPa WNW 8.7mph /  14km/h 11.8mph /  19km/h 96% 0in /  0.00mm 81.00 W/m2 unknown
11:09 39.2 °F /  4.0 °C 39.2 °F /  4.0 °C 29.7in /  1005.1hPa WNW 8.1mph /  13km/h 11.8mph /  19km/h 96% 0in /  0.00mm 53.00 W/m2 unknown
11:14 39.2 °F /  4.0 °C 39.2 °F /  4.0 °C 29.7in /  1005.2hPa West 6.2mph /  10km/h 9.9mph /  16km/h 96% 0in /  0.00mm 49.00 W/m2 unknown
11:19 39.2 °F /  4.0 °C 39.2 °F /  4.0 °C 29.7in /  1005.2hPa West 6.8mph /  11km/h 8.1mph /  13km/h 96% 0in /  0.00mm 58.00 W/m2 unknown
11:24 39.2 °F /  4.0 °C 39.2 °F /  4.0 °C 29.7in /  1004.9hPa West 6.8mph /  11km/h 8.1mph /  13km/h 96% 0in /  0.00mm 58.00 W/m2 unknown
11:29 39.2 °F /  4.0 °C 39.2 °F /  4.0 °C 29.7in /  1004.9hPa WNW 5.6mph /  9km/h 8.1mph /  13km/h 96% 0in /  0.00mm 54.00 W/m2 unknown
11:34 39.2 °F /  4.0 °C 39.2 °F /  4.0 °C 29.7in /  1005.1hPa WNW 5.6mph /  9km/h 8.1mph /  13km/h 96% 0in /  0.00mm 56.00 W/m2 unknown
11:39 39.2 °F /  4.0 °C 39.2 °F /  4.0 °C 29.7in /  1005.1hPa WNW 5.6mph /  9km/h 6.8mph /  11km/h 96% 0in /  0.00mm 54.00 W/m2 unknown
11:44 39.2 °F /  4.0 °C 39.2 °F /  4.0 °C 29.7in /  1005.2hPa West 6.8mph /  11km/h 8.1mph /  13km/h 96% 0in /  0.00mm 49.00 W/m2 unknown
11:49 39.2 °F /  4.0 °C 39.2 °F /  4.0 °C 29.7in /  1005.3hPa West 5mph /  8km/h 8.1mph /  13km/h 96% 0in /  0.00mm 44.00 W/m2 unknown
11:54 39.2 °F /  4.0 °C 39.2 °F /  4.0 °C 29.7in /  1005.3hPa West 6.2mph /  10km/h 9.3mph /  15km/h 96% 0in /  0.00mm 60.00 W/m2 unknown
11:59 39.2 °F /  4.0 °C 39.2 °F /  4.0 °C 29.7in /  1005.2hPa West 6.2mph /  10km/h 9.3mph /  15km/h 96% 0in /  0.00mm 60.00 W/m2 unknown
12:04 39.2 °F /  4.0 °C 39.2 °F /  4.0 °C 29.7in /  1005.1hPa West 5.6mph /  9km/h 8.7mph /  14km/h 96% 0in /  0.00mm 60.00 W/m2 unknown
12:09 39.2 °F /  4.0 °C 39.2 °F /  4.0 °C 29.7in /  1005.2hPa West 6.2mph /  10km/h 8.1mph /  13km/h 96% 0in /  0.00mm 56.00 W/m2 unknown
12:14 39.2 °F /  4.0 °C 39.2 °F /  4.0 °C 29.7in /  1005.3hPa West 6.2mph /  10km/h 8.1mph /  13km/h 96% 0in /  0.00mm 35.00 W/m2 unknown
12:19 39.2 °F /  4.0 °C 39.2 °F /  4.0 °C 29.7in /  1005.3hPa West 6.2mph /  10km/h 9.3mph /  15km/h 96% 0in /  0.00mm 40.00 W/m2 unknown
12:24 39.2 °F /  4.0 °C 39.2 °F /  4.0 °C 29.7in /  1005.3hPa WSW 6.2mph /  10km/h 8.7mph /  14km/h 96% 0in /  0.00mm 37.00 W/m2 unknown
12:29 39.2 °F /  4.0 °C 39.2 °F /  4.0 °C 29.7in /  1005.3hPa West 5.6mph /  9km/h 6.8mph /  11km/h 96% 0in /  0.00mm 37.00 W/m2 unknown
12:34 39.2 °F /  4.0 °C 39.2 °F /  4.0 °C 29.7in /  1005.2hPa West 6.2mph /  10km/h 6.8mph /  11km/h 96% 0in /  0.00mm 40.00 W/m2 unknown
12:39 41 °F /  5.0 °C 39.2 °F /  4.0 °C 29.7in /  1005.1hPa West 5mph /  8km/h 6.8mph /  11km/h 96% 0in /  0.00mm 40.00 W/m2 unknown
12:44 41 °F /  5.0 °C 39.2 °F /  4.0 °C 29.7in /  1005.1hPa West 5.6mph /  9km/h 8.1mph /  13km/h 96% 0in /  0.00mm 39.00 W/m2 unknown
12:49 41 °F /  5.0 °C 39.2 °F /  4.0 °C 29.7in /  1005.1hPa West 6.2mph /  10km/h 9.3mph /  15km/h 96% 0in /  0.00mm 33.00 W/m2 unknown
12:54 41 °F /  5.0 °C 39.2 °F /  4.0 °C 29.7in /  1004.9hPa West 5.6mph /  9km/h 8.7mph /  14km/h 96% 0in /  0.00mm 37.00 W/m2 unknown
12:59 41 °F /  5.0 °C 39.2 °F /  4.0 °C 29.7in /  1004.9hPa West 5mph /  8km/h 6.8mph /  11km/h 96% 0in /  0.00mm 33.00 W/m2 unknown
13:04 41 °F /  5.0 °C 39.2 °F /  4.0 °C 29.7in /  1005.1hPa WSW 5mph /  8km/h 6.8mph /  11km/h 96% 0in /  0.00mm 32.00 W/m2 unknown
13:09 41 °F /  5.0 °C 39.2 °F /  4.0 °C 29.7in /  1005.1hPa WSW 6.2mph /  10km/h 8.1mph /  13km/h 96% 0in /  0.00mm 28.00 W/m2 unknown
13:14 41 °F /  5.0 °C 39.2 °F /  4.0 °C 29.7in /  1005.1hPa West 6.2mph /  10km/h 8.1mph /  13km/h 96% 0in /  0.00mm 32.00 W/m2 unknown
13:19 41 °F /  5.0 °C 39.2 °F /  4.0 °C 29.7in /  1005.1hPa West 5mph /  8km/h 8.1mph /  13km/h 96% 0in /  0.00mm 32.00 W/m2 unknown
13:24 41 °F /  5.0 °C 39.2 °F /  4.0 °C 29.7in /  1005.1hPa West 5mph /  8km/h 6.8mph /  11km/h 96% 0in /  0.00mm 39.00 W/m2 unknown
13:29 41 °F /  5.0 °C 39.2 °F /  4.0 °C 29.7in /  1005.1hPa West 5mph /  8km/h 6.2mph /  10km/h 96% 0in /  0.00mm 39.00 W/m2 unknown
13:34 41 °F /  5.0 °C 39.2 °F /  4.0 °C 29.7in /  1005.2hPa WSW 3.7mph /  6km/h 6.2mph /  10km/h 96% 0in /  0.00mm 40.00 W/m2 unknown
13:39 41 °F /  5.0 °C 39.2 °F /  4.0 °C 29.7in /  1005.2hPa WSW 5mph /  8km/h 6.8mph /  11km/h 96% 0in /  0.00mm 33.00 W/m2 unknown
13:44 41 °F /  5.0 °C 39.2 °F /  4.0 °C 29.7in /  1005.1hPa WSW 5.6mph /  9km/h 8.7mph /  14km/h 96% 0in /  0.00mm 42.00 W/m2 unknown
13:49 41 °F /  5.0 °C 39.2 °F /  4.0 °C 29.7in /  1005.2hPa WSW 6.2mph /  10km/h 9.3mph /  15km/h 96% 0in /  0.00mm 37.00 W/m2 unknown
13:54 41 °F /  5.0 °C 39.2 °F /  4.0 °C 29.7in /  1005.2hPa West 5.6mph /  9km/h 8.7mph /  14km/h 96% 0in /  0.00mm 35.00 W/m2 unknown
13:59 41 °F /  5.0 °C 39.2 °F /  4.0 °C 29.7in /  1005.2hPa WSW 5mph /  8km/h 6.8mph /  11km/h 96% 0in /  0.00mm 35.00 W/m2 unknown
14:04 41 °F /  5.0 °C 39.2 °F /  4.0 °C 29.7in /  1005.2hPa WSW 4.3mph /  7km/h 6.8mph /  11km/h 96% 0in /  0.00mm 37.00 W/m2 unknown
14:09 41 °F /  5.0 °C 39.2 °F /  4.0 °C 29.7in /  1005.2hPa West 6.8mph /  11km/h 9.3mph /  15km/h 96% 0in /  0.00mm 35.00 W/m2 unknown
14:14 41 °F /  5.0 °C 39.2 °F /  4.0 °C 29.7in /  1005.3hPa WSW 6.2mph /  10km/h 9.3mph /  15km/h 96% 0in /  0.00mm 33.00 W/m2 unknown
14:19 41 °F /  5.0 °C 39.2 °F /  4.0 °C 29.7in /  1005.3hPa WSW 6.2mph /  10km/h 8.7mph /  14km/h 96% 0in /  0.00mm 37.00 W/m2 unknown
14:24 41 °F /  5.0 °C 39.2 °F /  4.0 °C 29.7in /  1005.4hPa WSW 6.2mph /  10km/h 8.1mph /  13km/h 96% 0in /  0.00mm 37.00 W/m2 unknown
14:29 41 °F /  5.0 °C 39.2 °F /  4.0 °C 29.7in /  1005.4hPa WSW 6.2mph /  10km/h 6.8mph /  11km/h 96% 0in /  0.00mm 40.00 W/m2 unknown
14:34 41 °F /  5.0 °C 39.2 °F /  4.0 °C 29.7in /  1005.5hPa WSW 5.6mph /  9km/h 6.8mph /  11km/h 96% 0in /  0.00mm 40.00 W/m2 unknown
14:39 41 °F /  5.0 °C 39.2 °F /  4.0 °C 29.7in /  1005.6hPa WSW 5mph /  8km/h 6.8mph /  11km/h 96% 0in /  0.00mm 25.00 W/m2 unknown
14:44 41 °F /  5.0 °C 39.2 °F /  4.0 °C 29.7in /  1005.5hPa WSW 4.3mph /  7km/h 6.8mph /  11km/h 96% 0in /  0.00mm 19.00 W/m2 unknown
14:49 41 °F /  5.0 °C 39.2 °F /  4.0 °C 29.7in /  1005.5hPa West 5mph /  8km/h 6.8mph /  11km/h 96% 0in /  0.00mm 19.00 W/m2 unknown
14:54 41 °F /  5.0 °C 39.2 °F /  4.0 °C 29.7in /  1005.5hPa West 5.6mph /  9km/h 6.8mph /  11km/h 96% 0in /  0.00mm 21.00 W/m2 unknown
14:59 41 °F /  5.0 °C 39.2 °F /  4.0 °C 29.7in /  1005.5hPa West 5.6mph /  9km/h 8.1mph /  13km/h 96% 0in /  0.00mm 21.00 W/m2 unknown
15:04 41 °F /  5.0 °C 39.2 °F /  4.0 °C 29.7in /  1005.5hPa West 3.7mph /  6km/h 8.1mph /  13km/h 96% 0in /  0.00mm 21.00 W/m2 unknown
15:09 41 °F /  5.0 °C 39.2 °F /  4.0 °C 29.7in /  1005.6hPa West 3.7mph /  6km/h 5mph /  8km/h 96% 0in /  0.00mm 21.00 W/m2 unknown
15:14 41 °F /  5.0 °C 41 °F /  5.0 °C 29.7in /  1005.7hPa West 4.3mph /  7km/h 6.2mph /  10km/h 96% 0in /  0.00mm 16.00 W/m2 unknown
15:19 41 °F /  5.0 °C 41 °F /  5.0 °C 29.7in /  1005.7hPa West 5mph /  8km/h 6.2mph /  10km/h 96% 0in /  0.00mm 14.00 W/m2 unknown
15:22 41 °F /  5.0 °C 41 °F /  5.0 °C 29.7in /  1005.6hPa WSW 3.1mph /  5km/h 6.2mph /  10km/h 96% 0in /  0.00mm 11.00 W/m2 unknown
15:29 41 °F /  5.0 °C 41 °F /  5.0 °C 29.7in /  1005.7hPa West 3.7mph /  6km/h 5mph /  8km/h 96% 0in /  0.00mm 21.00 W/m2 unknown
15:34 41 °F /  5.0 °C 41 °F /  5.0 °C 29.7in /  1005.8hPa West 4.3mph /  7km/h 6.2mph /  10km/h 96% 0in /  0.00mm 28.00 W/m2 unknown
15:39 41 °F /  5.0 °C 41 °F /  5.0 °C 29.7in /  1005.8hPa West 5mph /  8km/h 6.2mph /  10km/h 96% 0in /  0.00mm 28.00 W/m2 unknown
15:44 41 °F /  5.0 °C 41 °F /  5.0 °C 29.7in /  1005.8hPa West 3.1mph /  5km/h 5mph /  8km/h 96% 0in /  0.00mm 23.00 W/m2 unknown
15:49 41 °F /  5.0 °C 41 °F /  5.0 °C 29.7in /  1005.8hPa West 3.7mph /  6km/h 5mph /  8km/h 96% 0in /  0.00mm 16.00 W/m2 unknown
15:54 41 °F /  5.0 °C 41 °F /  5.0 °C 29.7in /  1005.9hPa West 4.3mph /  7km/h 6.2mph /  10km/h 96% 0in /  0.00mm 12.00 W/m2 unknown
15:59 41 °F /  5.0 °C 41 °F /  5.0 °C 29.7in /  1006.0hPa West 4.3mph /  7km/h 6.2mph /  10km/h 96% 0in /  0.00mm 9.00 W/m2 unknown
16:04 41 °F /  5.0 °C 41 °F /  5.0 °C 29.7in /  1006.1hPa WSW 4.3mph /  7km/h 6.2mph /  10km/h 96% 0in /  0.00mm 5.00 W/m2 unknown
16:09 41 °F /  5.0 °C 41 °F /  5.0 °C 29.7in /  1006.2hPa WSW 4.3mph /  7km/h 6.2mph /  10km/h 96% 0in /  0.00mm 0.00 W/m2 unknown
16:14 41 °F /  5.0 °C 41 °F /  5.0 °C 29.7in /  1006.3hPa WSW 3.1mph /  5km/h 6.2mph /  10km/h 96% 0in /  0.00mm 0.00 W/m2 unknown
16:19 41 °F /  5.0 °C 41 °F /  5.0 °C 29.7in /  1006.3hPa West 3.7mph /  6km/h 5mph /  8km/h 96% 0in /  0.00mm 0.00 W/m2 unknown
16:24 41 °F /  5.0 °C 41 °F /  5.0 °C 29.7in /  1006.5hPa West 3.7mph /  6km/h 5mph /  8km/h 96% 0in /  0.00mm 0.00 W/m2 unknown
16:29 41 °F /  5.0 °C 41 °F /  5.0 °C 29.7in /  1006.6hPa West 5.6mph /  9km/h 6.8mph /  11km/h 96% 0in /  0.00mm 0.00 W/m2 unknown
16:34 41 °F /  5.0 °C 41 °F /  5.0 °C 29.7in /  1006.5hPa WNW 3.1mph /  5km/h 6.8mph /  11km/h 96% 0in /  0.00mm 0.00 W/m2 unknown
16:39 41 °F /  5.0 °C 41 °F /  5.0 °C 29.7in /  1006.6hPa WSW 3.7mph /  6km/h 5mph /  8km/h 96% 0in /  0.00mm 0.00 W/m2 unknown
16:44 41 °F /  5.0 °C 41 °F /  5.0 °C 29.7in /  1006.6hPa West 3.7mph /  6km/h 5mph /  8km/h 96% 0in /  0.00mm 0.00 W/m2 unknown
16:49 41 °F /  5.0 °C 41 °F /  5.0 °C 29.7in /  1006.6hPa West 4.3mph /  7km/h 5mph /  8km/h 96% 0in /  0.00mm 0.00 W/m2 unknown
16:54 41 °F /  5.0 °C 41 °F /  5.0 °C 29.7in /  1006.6hPa West 3.7mph /  6km/h 5mph /  8km/h 96% 0in /  0.00mm 0.00 W/m2 unknown
16:59 41 °F /  5.0 °C 41 °F /  5.0 °C 29.7in /  1006.7hPa West 3.1mph /  5km/h 5mph /  8km/h 96% 0in /  0.00mm 0.00 W/m2 unknown
17:04 41 °F /  5.0 °C 41 °F /  5.0 °C 29.7in /  1006.7hPa West 3.1mph /  5km/h 5mph /  8km/h 96% 0in /  0.00mm 0.00 W/m2 unknown
17:09 41 °F /  5.0 °C 41 °F /  5.0 °C 29.7in /  1006.8hPa West 3.7mph /  6km/h 5mph /  8km/h 96% 0in /  0.00mm 0.00 W/m2 unknown
17:14 41 °F /  5.0 °C 41 °F /  5.0 °C 29.7in /  1006.9hPa WSW 3.1mph /  5km/h 5mph /  8km/h 96% 0in /  0.00mm 0.00 W/m2 unknown
17:19 41 °F /  5.0 °C 41 °F /  5.0 °C 29.7in /  1007.0hPa WSW 2.5mph /  4km/h 3.7mph /  6km/h 96% 0in /  0.00mm 0.00 W/m2 unknown
17:24 41 °F /  5.0 °C 41 °F /  5.0 °C 29.7in /  1007.0hPa West 3.7mph /  6km/h 5mph /  8km/h 96% 0in /  0.00mm 0.00 W/m2 unknown
17:29 41 °F /  5.0 °C 41 °F /  5.0 °C 29.7in /  1007.1hPa West 3.1mph /  5km/h 5mph /  8km/h 96% 0in /  0.00mm 0.00 W/m2 unknown
17:34 41 °F /  5.0 °C 41 °F /  5.0 °C 29.7in /  1007.1hPa West 3.7mph /  6km/h 5mph /  8km/h 100% 0in /  0.00mm 0.00 W/m2 unknown
17:39 41 °F /  5.0 °C 41 °F /  5.0 °C 29.7in /  1006.9hPa West 3.1mph /  5km/h 5mph /  8km/h 98% 0in /  0.00mm 0.00 W/m2 unknown
17:44 41 °F /  5.0 °C 41 °F /  5.0 °C 29.7in /  1006.9hPa WNW 3.1mph /  5km/h 5mph /  8km/h 100% 0in /  0.00mm 0.00 W/m2 unknown
17:49 41 °F /  5.0 °C 41 °F /  5.0 °C 29.7in /  1006.9hPa WNW 3.1mph /  5km/h 5mph /  8km/h 100% 0in /  0.00mm 0.00 W/m2 unknown
17:54 41 °F /  5.0 °C 41 °F /  5.0 °C 29.7in /  1006.9hPa WNW 4.3mph /  7km/h 5mph /  8km/h 100% 0in /  0.00mm 0.00 W/m2 unknown
17:59 41 °F /  5.0 °C 41 °F /  5.0 °C 29.7in /  1006.9hPa WNW 5.6mph /  9km/h 6.8mph /  11km/h 100% 0in /  0.00mm 0.00 W/m2 unknown
18:04 41 °F /  5.0 °C 41 °F /  5.0 °C 29.7in /  1007.3hPa West 5mph /  8km/h 6.8mph /  11km/h 100% 0in /  0.00mm 0.00 W/m2 unknown
18:09 41 °F /  5.0 °C 41 °F /  5.0 °C 29.7in /  1007.3hPa WSW 4.3mph /  7km/h 6.8mph /  11km/h 100% 0in /  0.00mm 0.00 W/m2 unknown
18:14 41 °F /  5.0 °C 41 °F /  5.0 °C 29.7in /  1007.3hPa WSW 3.7mph /  6km/h 6.2mph /  10km/h 96% 0in /  0.00mm 0.00 W/m2 unknown
18:19 41 °F /  5.0 °C 41 °F /  5.0 °C 29.8in /  1007.4hPa WSW 3.1mph /  5km/h 6.2mph /  10km/h 100% 0in /  0.00mm 0.00 W/m2 unknown
18:24 41 °F /  5.0 °C 41 °F /  5.0 °C 29.7in /  1007.3hPa West 4.3mph /  7km/h 5mph /  8km/h 96% 0in /  0.00mm 0.00 W/m2 unknown
18:29 41 °F /  5.0 °C 41 °F /  5.0 °C 29.7in /  1007.3hPa WNW 5mph /  8km/h 5mph /  8km/h 96% 0in /  0.00mm 0.00 W/m2 unknown
18:34 41 °F /  5.0 °C 41 °F /  5.0 °C 29.7in /  1007.2hPa West 5mph /  8km/h 6.8mph /  11km/h 96% 0in /  0.00mm 0.00 W/m2 unknown
18:39 41 °F /  5.0 °C 41 °F /  5.0 °C 29.7in /  1007.3hPa West 5mph /  8km/h 6.8mph /  11km/h 96% 0in /  0.00mm 0.00 W/m2 unknown
18:44 41 °F /  5.0 °C 41 °F /  5.0 °C 29.7in /  1007.2hPa WNW 5.6mph /  9km/h 8.1mph /  13km/h 96% 0in /  0.00mm 0.00 W/m2 unknown
18:49 41 °F /  5.0 °C 41 °F /  5.0 °C 29.7in /  1007.2hPa WNW 5.6mph /  9km/h 8.1mph /  13km/h 96% 0in /  0.00mm 0.00 W/m2 unknown
18:54 41 °F /  5.0 °C 41 °F /  5.0 °C 29.8in /  1007.4hPa West 5.6mph /  9km/h 8.1mph /  13km/h 96% 0in /  0.00mm 0.00 W/m2 unknown
18:59 41 °F /  5.0 °C 41 °F /  5.0 °C 29.8in /  1007.4hPa WNW 5.6mph /  9km/h 6.8mph /  11km/h 96% 0in /  0.00mm 0.00 W/m2 unknown
19:04 41 °F /  5.0 °C 41 °F /  5.0 °C 29.8in /  1007.4hPa West 5mph /  8km/h 6.8mph /  11km/h 96% 0in /  0.00mm 0.00 W/m2 unknown
19:09 41 °F /  5.0 °C 41 °F /  5.0 °C 29.7in /  1007.3hPa West 4.3mph /  7km/h 6.2mph /  10km/h 96% 0in /  0.00mm 0.00 W/m2 unknown
19:14 41 °F /  5.0 °C 41 °F /  5.0 °C 29.8in /  1007.4hPa West 5.6mph /  9km/h 6.8mph /  11km/h 96% 0in /  0.00mm 0.00 W/m2 unknown
19:19 41 °F /  5.0 °C 41 °F /  5.0 °C 29.8in /  1007.4hPa West 6.2mph /  10km/h 6.8mph /  11km/h 100% 0in /  0.00mm 0.00 W/m2 unknown
19:24 41 °F /  5.0 °C 41 °F /  5.0 °C 29.8in /  1007.4hPa West 4.3mph /  7km/h 6.2mph /  10km/h 100% 0in /  0.00mm 0.00 W/m2 unknown
19:29 41 °F /  5.0 °C 41 °F /  5.0 °C 29.8in /  1007.4hPa WNW 6.2mph /  10km/h 9.3mph /  15km/h 96% 0in /  0.00mm 0.00 W/m2 unknown
19:34 41 °F /  5.0 °C 41 °F /  5.0 °C 29.8in /  1007.4hPa WNW 6.8mph /  11km/h 8.7mph /  14km/h 96% 0in /  0.00mm 0.00 W/m2 unknown
19:39 41 °F /  5.0 °C 41 °F /  5.0 °C 29.8in /  1007.5hPa WNW 6.2mph /  10km/h 8.1mph /  13km/h 96% 0in /  0.00mm 0.00 W/m2 unknown
19:44 41 °F /  5.0 °C 41 °F /  5.0 °C 29.8in /  1007.6hPa WNW 6.2mph /  10km/h 8.1mph /  13km/h 96% 0in /  0.00mm 0.00 W/m2 unknown
19:49 41 °F /  5.0 °C 41 °F /  5.0 °C 29.8in /  1007.6hPa WNW 5mph /  8km/h 8.1mph /  13km/h 96% 0in /  0.00mm 0.00 W/m2 unknown
19:54 41 °F /  5.0 °C 41 °F /  5.0 °C 29.8in /  1007.6hPa WNW 6.2mph /  10km/h 8.1mph /  13km/h 96% 0in /  0.00mm 0.00 W/m2 unknown
19:59 41 °F /  5.0 °C 41 °F /  5.0 °C 29.8in /  1007.5hPa WNW 6.2mph /  10km/h 8.1mph /  13km/h 96% 0in /  0.00mm 0.00 W/m2 unknown
20:04 41 °F /  5.0 °C 41 °F /  5.0 °C 29.8in /  1007.5hPa WNW 6.2mph /  10km/h 8.1mph /  13km/h 96% 0in /  0.00mm 0.00 W/m2 unknown
20:09 41 °F /  5.0 °C 41 °F /  5.0 °C 29.8in /  1007.6hPa WNW 5mph /  8km/h 8.1mph /  13km/h 96% 0in /  0.00mm 0.00 W/m2 unknown
20:14 41 °F /  5.0 °C 41 °F /  5.0 °C 29.8in /  1007.7hPa West 4.3mph /  7km/h 6.2mph /  10km/h 96% 0in /  0.00mm 0.00 W/m2 unknown
20:19 41 °F /  5.0 °C 41 °F /  5.0 °C 29.8in /  1007.6hPa West 3.1mph /  5km/h 6.2mph /  10km/h 96% 0in /  0.00mm 0.00 W/m2 unknown
20:24 41 °F /  5.0 °C 41 °F /  5.0 °C 29.8in /  1007.6hPa West 3.1mph /  5km/h 3.7mph /  6km/h 96% 0in /  0.00mm 0.00 W/m2 unknown
20:29 41 °F /  5.0 °C 41 °F /  5.0 °C 29.8in /  1007.7hPa West 3.7mph /  6km/h 3.7mph /  6km/h 96% 0in /  0.00mm 0.00 W/m2 unknown
20:34 41 °F /  5.0 °C 41 °F /  5.0 °C 29.8in /  1007.8hPa West 3.1mph /  5km/h 3.7mph /  6km/h 96% 0in /  0.00mm 0.00 W/m2 unknown
20:39 41 °F /  5.0 °C 41 °F /  5.0 °C 29.8in /  1008.0hPa WSW 3.1mph /  5km/h 3.7mph /  6km/h 96% 0in /  0.00mm 0.00 W/m2 unknown
20:44 41 °F /  5.0 °C 41 °F /  5.0 °C 29.8in /  1008.0hPa WSW 3.7mph /  6km/h 6.2mph /  10km/h 96% 0in /  0.00mm 0.00 W/m2 unknown
20:49 41 °F /  5.0 °C 41 °F /  5.0 °C 29.8in /  1008.0hPa WSW 3.7mph /  6km/h 5.6mph /  9km/h 96% 0in /  0.00mm 0.00 W/m2 unknown
20:54 41 °F /  5.0 °C 41 °F /  5.0 °C 29.8in /  1008.1hPa WSW 5mph /  8km/h 6.2mph /  10km/h 96% 0in /  0.00mm 0.00 W/m2 unknown
20:59 41 °F /  5.0 °C 41 °F /  5.0 °C 29.8in /  1008.1hPa West 4.3mph /  7km/h 6.2mph /  10km/h 96% 0in /  0.00mm 0.00 W/m2 unknown
21:04 41 °F /  5.0 °C 41 °F /  5.0 °C 29.8in /  1008.1hPa West 5mph /  8km/h 6.2mph /  10km/h 96% 0in /  0.00mm 0.00 W/m2 unknown
21:09 41 °F /  5.0 °C 41 °F /  5.0 °C 29.8in /  1008.2hPa WNW 4.3mph /  7km/h 6.2mph /  10km/h 96% 0in /  0.00mm 0.00 W/m2 unknown
21:14 41 °F /  5.0 °C 41 °F /  5.0 °C 29.8in /  1008.2hPa West 3.1mph /  5km/h 6.2mph /  10km/h 96% 0in /  0.00mm 0.00 W/m2 unknown
21:19 41 °F /  5.0 °C 41 °F /  5.0 °C 29.8in /  1008.2hPa West 3.7mph /  6km/h 6.2mph /  10km/h 96% 0in /  0.00mm 0.00 W/m2 unknown
21:24 41 °F /  5.0 °C 41 °F /  5.0 °C 29.8in /  1008.2hPa West 4.3mph /  7km/h 6.2mph /  10km/h 96% 0in /  0.00mm 0.00 W/m2 unknown
21:29 41 °F /  5.0 °C 41 °F /  5.0 °C 29.8in /  1008.2hPa WNW 4.3mph /  7km/h 6.2mph /  10km/h 96% 0in /  0.00mm 0.00 W/m2 unknown
21:34 41 °F /  5.0 °C 41 °F /  5.0 °C 29.8in /  1008.2hPa WNW 5.6mph /  9km/h 6.8mph /  11km/h 96% 0in /  0.00mm 0.00 W/m2 unknown
21:39 41 °F /  5.0 °C 41 °F /  5.0 °C 29.8in /  1008.3hPa West 5mph /  8km/h 6.8mph /  11km/h 96% 0in /  0.00mm 0.00 W/m2 unknown
21:44 41 °F /  5.0 °C 41 °F /  5.0 °C 29.8in /  1008.4hPa West 5mph /  8km/h 6.8mph /  11km/h 96% 0in /  0.00mm 0.00 W/m2 unknown
21:49 41 °F /  5.0 °C 41 °F /  5.0 °C 29.8in /  1008.5hPa West 5.6mph /  9km/h 6.8mph /  11km/h 96% 0in /  0.00mm 0.00 W/m2 unknown
21:54 41 °F /  5.0 °C 41 °F /  5.0 °C 29.8in /  1008.5hPa WNW 5.6mph /  9km/h 8.1mph /  13km/h 96% 0in /  0.00mm 0.00 W/m2 unknown
21:59 41 °F /  5.0 °C 41 °F /  5.0 °C 29.8in /  1008.6hPa West 6.2mph /  10km/h 8.1mph /  13km/h 96% 0in /  0.00mm 0.00 W/m2 unknown
22:04 41 °F /  5.0 °C 41 °F /  5.0 °C 29.8in /  1008.6hPa West 5.6mph /  9km/h 8.1mph /  13km/h 96% 0in /  0.00mm 0.00 W/m2 unknown
22:09 41 °F /  5.0 °C 41 °F /  5.0 °C 29.8in /  1008.6hPa West 6.2mph /  10km/h 8.1mph /  13km/h 96% 0in /  0.00mm 0.00 W/m2 unknown
22:14 41 °F /  5.0 °C 41 °F /  5.0 °C 29.8in /  1008.7hPa West 3.7mph /  6km/h 8.1mph /  13km/h 96% 0in /  0.00mm 0.00 W/m2 unknown
22:19 41 °F /  5.0 °C 41 °F /  5.0 °C 29.8in /  1008.7hPa WSW 4.3mph /  7km/h 6.2mph /  10km/h 96% 0in /  0.00mm 0.00 W/m2 unknown
22:24 41 °F /  5.0 °C 41 °F /  5.0 °C 29.8in /  1008.8hPa WSW 4.3mph /  7km/h 5mph /  8km/h 96% 0in /  0.00mm 0.00 W/m2 unknown
22:29 41 °F /  5.0 °C 41 °F /  5.0 °C 29.8in /  1008.9hPa WSW 4.3mph /  7km/h 6.2mph /  10km/h 96% 0in /  0.00mm 0.00 W/m2 unknown
22:34 41 °F /  5.0 °C 41 °F /  5.0 °C 29.8in /  1008.8hPa WNW 6.2mph /  10km/h 6.8mph /  11km/h 96% 0in /  0.00mm 0.00 W/m2 unknown
22:39 41 °F /  5.0 °C 41 °F /  5.0 °C 29.8in /  1008.9hPa WNW 6.2mph /  10km/h 6.8mph /  11km/h 96% 0in /  0.00mm 0.00 W/m2 unknown
22:44 41 °F /  5.0 °C 41 °F /  5.0 °C 29.8in /  1009.1hPa WNW 6.8mph /  11km/h 9.3mph /  15km/h 96% 0in /  0.00mm 0.00 W/m2 unknown
22:49 41 °F /  5.0 °C 41 °F /  5.0 °C 29.8in /  1009.3hPa West 6.2mph /  10km/h 8.7mph /  14km/h 96% 0in /  0.00mm 0.00 W/m2 unknown
22:54 41 °F /  5.0 °C 41 °F /  5.0 °C 29.8in /  1009.3hPa West 5mph /  8km/h 8.1mph /  13km/h 96% 0in /  0.00mm 0.00 W/m2 unknown
22:59 41 °F /  5.0 °C 41 °F /  5.0 °C 29.8in /  1009.4hPa SW 3.1mph /  5km/h 6.2mph /  10km/h 96% 0in /  0.00mm 0.00 W/m2 unknown
23:04 41 °F /  5.0 °C 41 °F /  5.0 °C 29.8in /  1009.4hPa SW 2.5mph /  4km/h 3.7mph /  6km/h 96% 0in /  0.00mm 0.00 W/m2 unknown
23:09 41 °F /  5.0 °C 41 °F /  5.0 °C 29.8in /  1009.5hPa WSW 4.3mph /  7km/h 6.2mph /  10km/h 96% 0in /  0.00mm 0.00 W/m2 unknown
23:14 41 °F /  5.0 °C 41 °F /  5.0 °C 29.8in /  1009.6hPa WSW 5mph /  8km/h 6.2mph /  10km/h 96% 0in /  0.00mm 0.00 W/m2 unknown
23:19 41 °F /  5.0 °C 41 °F /  5.0 °C 29.8in /  1009.6hPa WSW 5mph /  8km/h 5.6mph /  9km/h 96% 0in /  0.00mm 0.00 W/m2 unknown
23:24 41 °F /  5.0 °C 41 °F /  5.0 °C 29.8in /  1009.7hPa WSW 4.3mph /  7km/h 6.8mph /  11km/h 96% 0in /  0.00mm 0.00 W/m2 unknown
23:29 41 °F /  5.0 °C 41 °F /  5.0 °C 29.8in /  1009.7hPa West 4.3mph /  7km/h 5mph /  8km/h 96% 0in /  0.00mm 0.00 W/m2 unknown
23:34 41 °F /  5.0 °C 41 °F /  5.0 °C 29.8in /  1009.7hPa West 3.7mph /  6km/h 5mph /  8km/h 96% 0in /  0.00mm 0.00 W/m2 unknown
23:39 41 °F /  5.0 °C 41 °F /  5.0 °C 29.8in /  1009.7hPa WSW 3.1mph /  5km/h 5mph /  8km/h 96% 0in /  0.00mm 0.00 W/m2 unknown
23:44 41 °F /  5.0 °C 41 °F /  5.0 °C 29.8in /  1009.6hPa WNW 5mph /  8km/h 6.2mph /  10km/h 96% 0in /  0.00mm 0.00 W/m2 unknown
23:49 41 °F /  5.0 °C 41 °F /  5.0 °C 29.8in /  1009.6hPa West 5mph /  8km/h 6.2mph /  10km/h 96% 0in /  0.00mm 0.00 W/m2 unknown
23:54 41 °F /  5.0 °C 41 °F /  5.0 °C 29.8in /  1009.6hPa West 3.7mph /  6km/h 6.2mph /  10km/h 96% 0in /  0.00mm 0.00 W/m2 unknown
23:59 41 °F /  5.0 °C 41 °F /  5.0 °C 29.8in /  1009.5hPa WNW 5mph /  8km/h 6.2mph /  10km/h 96% 0in /  0.00mm 0.00 W/m2 unknown
Stazione Meteorologica MeteoMincio Rivalta s/M (MN)
Con i complimenti di Weather Underground - 4 mb



METEO PILLOLE
La più ampia escursione termica nell'arco di 24 ore negli USA
Browning - Montana
Tra il 23 e il 24 gennaio 1916 la temperatura scese da +6.6°c a -48.9°C.
Share

Non seguire questo link o sarai bannato dal sito!